PAJNPASI

Guest
Details From PAJN - Juneau Intl
To PASI - SITKA ROCKY GUTIERREZ
Flight Number -
Tags decoded
Created
Modified
Stats Distance 121 nm / 224 km
Max Altitude 0 ft / 0 m
Waypoints 6
Social Downloads 1
Likes 0
Share VATSIM

Download

Looking for another format? Having issues loading an existing format? Contact us
Advertisement - Login to hide

Notes

Requested: PAJN BARLO SSR SALIS HESOK PASI

Route

PAJN BARLO SSR SALIS HESOK PASI

ID Type Via Altitude Latitude Longitude Leg Dist Tot Dist Heading (true) Name
O PAJN APT - 0 ft / 0 m 58.35496˚ -134.57628˚ - 0 nm - Juneau Intl
BARLO FIX - 0 ft / 0 m 58.36046˚ -134.88924˚ 9 nm 9 nm 272° / 272° -
SSR VOR - 0 ft / 0 m 58.17767˚ -135.25886˚ 16 nm 25 nm 227° / 227° SISTERS ISLAND VORTAC
SALIS FIX - 0 ft / 0 m 57.38499˚ -136.30102˚ 58 nm 84 nm 215° / 215° -
HESOK FIX - 0 ft / 0 m 57.21309˚ -135.66252˚ 23 nm 107 nm 116° / 117° -
O PASI APT - 0 ft / 0 m 57.04713˚ -135.36160˚ 13 nm 121 nm 135° / 136° SITKA ROCKY GUTIERREZ

Altitude Profile

Advertisement - Login to hide

PAJN

Details ICAO PAJN (JNU)
Name Juneau Intl
Region USA (Alaska)
Timezone America/Juneau (UTC-8.0)
Stats Elevation 21 ft / 6 m (AMSL)
Location 58.354964° -134.576278°
Runways 1
Magnetic Variation 19.021° E

METAR

PAJN 221153Z COR 15005KT 3SM -RA BR FEW006 BKN027 OVC039 10/09 A2974

Decode

TAF

TAF PAJN 221138Z 2212/2312 12015KT P6SM -RA FEW015 BKN035 OVC045 WS020/15035KT TEMPO 2212/2215 12015G25KT 5SM -RA BR BKN025 FM221500 12014KT P6SM -SHRA SCT025 OVC040 FM230400 09006KT P6SM VCSH FEW020 OVC045

Decode

Departure Runways

ID Width Length Bearing (true) Bearing (mag) Surface Threshold Offset Overrun Length
08 150 ft / 46 m 8,430 ft / 2,570 m 104.87° 85.85° Asphalt 0 ft / 0 m 450 ft / 137 m
26 150 ft / 46 m 8,430 ft / 2,570 m 284.90° 265.88° Asphalt 0 ft / 0 m 225 ft / 69 m

PASI

Details ICAO PASI (SIT)
Name SITKA ROCKY GUTIERREZ
Region USA (Alaska)
Timezone America/Juneau (UTC-8.0)
Stats Elevation 21 ft / 6 m (AMSL)
Location 57.047128° -135.361597°
Runways 1
Magnetic Variation 18.634° E

METAR

PASI 221153Z 13005KT 9SM -RA BKN035 OVC044 09/07 A2973

Decode

TAF

PASI 221138Z 2212/2312 18008KT P6SM -SHRA SCT025 BKN035 OVC045 TEMPO 2212/2216 5SM -SHRA BR BKN025 FM221800 15008KT P6SM -SHRA SCT025 OVC035 FM222100 19008KT P6SM VCSH SCT025 BKN045 OVC060 FM230500 13005KT P6SM FEW015 BKN040 BKN080

Decode

Destination Runways

ID Width Length Bearing (true) Bearing (mag) Surface Threshold Offset Overrun Length
11 150 ft / 46 m 6,485 ft / 1,977 m 135.57° 116.94° Asphalt 0 ft / 0 m 0 ft / 0 m
29 150 ft / 46 m 6,485 ft / 1,977 m 315.59° 296.96° Asphalt 0 ft / 0 m 0 ft / 0 m

Approach Navaids

Runway Type Ident Frequency Range Bearing (true) Bearing (mag) Slope Elevation
11 Localiser ISIT 108.90 MHz 18 nm / 33 km 143.51° 124.87° - 15 ft / 5 m (AMSL)
11 DME ISIT 108.90 MHz 18 nm / 33 km - - - 34 ft / 10 m (AMSL)

Popular Alternatives